Time;durP1;ratioP1;P1;durP2;ratioP2;P2;SDS_P1;SDS_P2;PMS_P1;PMS_P2;Temp;Humidity;BMP_temperature;BMP_pressure;BME280_temperature;BME280_humidity;BME280_pressure;Samples;Min_cycle;Max_cycle;Signal;HPM_P1;HPM_P2
2021/12/03 00:00:26;;;;;;;4.63;2.38;;;8.50;67.10;;;;;;4975343;28;20176;-69
2021/12/03 00:02:52;;;;;;;0.52;0.43;;;8.60;67.30;;;;;;4975507;28;20354;-67
2021/12/03 00:05:17;;;;;;;0.30;0.20;;;8.70;68.30;;;;;;4975536;28;20266;-68
2021/12/03 00:07:43;;;;;;;0.20;0.20;;;8.80;65.70;;;;;;4975529;28;20176;-67
2021/12/03 00:10:12;;;;;;;0.35;0.30;;;8.80;65.70;;;;;;4975201;28;20232;-62
2021/12/03 00:12:38;;;;;;;1.08;0.20;;;8.80;65.80;;;;;;4975461;28;20783;-68
2021/12/03 00:15:06;;;;;;;2.28;1.35;;;8.80;65.90;;;;;;4975402;28;20268;-66
2021/12/03 00:17:32;;;;;;;0.38;0.38;;;8.70;66.70;;;;;;4975199;28;20267;-67
2021/12/03 00:19:58;;;;;;;0.20;0.20;;;8.70;67.00;;;;;;4975567;28;20773;-68
2021/12/03 00:22:24;;;;;;;0.10;0.10;;;8.70;66.90;;;;;;4975957;28;20215;-67
2021/12/03 00:24:50;;;;;;;0.20;0.20;;;8.70;67.10;;;;;;4975404;28;20266;-64
2021/12/03 00:27:16;;;;;;;0.20;0.20;;;8.80;66.50;;;;;;4975755;28;20176;-64
2021/12/03 00:29:42;;;;;;;0.22;0.20;;;8.70;66.70;;;;;;4978554;28;20203;-62
2021/12/03 00:32:08;;;;;;;0.10;0.10;;;8.70;66.70;;;;;;4978477;28;20184;-67
2021/12/03 00:34:33;;;;;;;1.05;0.30;;;8.50;66.90;;;;;;4976966;28;20690;-62
2021/12/03 00:37:00;;;;;;;0.20;0.20;;;8.60;67.30;;;;;;4975722;28;20192;-58
2021/12/03 00:39:26;;;;;;;0.10;0.10;;;8.60;67.20;;;;;;4975633;28;20203;-61
2021/12/03 00:41:58;;;;;;;0.20;0.20;;;8.60;67.50;;;;;;4974963;28;20220;-64
2021/12/03 00:44:25;;;;;;;0.20;0.20;;;8.40;66.90;;;;;;4975456;28;20176;-61
2021/12/03 00:46:51;;;;;;;0.20;0.20;;;8.50;67.60;;;;;;4975739;28;20184;-62
2021/12/03 00:49:16;;;;;;;0.20;0.20;;;8.50;68.30;;;;;;4976165;28;20215;-64
2021/12/03 00:51:42;;;;;;;0.30;0.30;;;8.40;68.40;;;;;;4975641;28;20531;-62
2021/12/03 00:54:08;;;;;;;0.25;0.25;;;8.30;68.40;;;;;;4975986;28;20266;-64
2021/12/03 00:56:34;;;;;;;1.10;0.30;;;8.40;68.70;;;;;;4976351;28;20172;-60
2021/12/03 00:58:59;;;;;;;0.20;0.20;;;8.40;68.00;;;;;;4976771;28;20200;-61
2021/12/03 01:01:25;;;;;;;1.25;0.20;;;8.50;67.90;;;;;;4976062;28;20714;-63
2021/12/03 01:03:52;;;;;;;0.20;0.20;;;8.50;68.20;;;;;;4976295;28;20186;-64
2021/12/03 01:06:17;;;;;;;0.40;0.40;;;8.40;68.30;;;;;;4976100;28;20179;-70
2021/12/03 01:08:43;;;;;;;0.20;0.20;;;8.50;68.00;;;;;;4976144;28;20255;-69
2021/12/03 01:11:11;;;;;;;0.43;0.20;;;8.50;67.90;;;;;;4976245;28;20234;-61
2021/12/03 01:13:38;;;;;;;0.43;0.20;;;8.50;67.30;;;;;;4976494;28;20179;-63
2021/12/03 01:16:06;;;;;;;0.75;0.32;;;8.50;67.00;;;;;;4975849;28;20184;-66
2021/12/03 01:18:32;;;;;;;0.20;0.20;;;8.50;67.00;;;;;;4975845;28;20192;-68
2021/12/03 01:21:00;;;;;;;0.32;0.20;;;8.50;67.40;;;;;;4975953;28;20204;-65
2021/12/03 01:23:26;;;;;;;0.10;0.10;;;8.60;66.70;;;;;;4975890;28;20247;-60
2021/12/03 01:25:52;;;;;;;0.25;0.17;;;8.60;66.90;;;;;;4975671;28;20176;-60
2021/12/03 01:28:18;;;;;;;0.10;0.10;;;8.60;67.00;;;;;;4976235;28;20296;-62
2021/12/03 01:30:43;;;;;;;0.28;0.28;;;8.60;67.00;;;;;;4975712;28;20207;-62
2021/12/03 01:33:10;;;;;;;0.20;0.20;;;8.60;67.60;;;;;;4976119;28;20248;-59
2021/12/03 01:35:37;;;;;;;0.28;0.20;;;8.70;66.90;;;;;;4975525;28;20177;-62
2021/12/03 01:38:04;;;;;;;0.28;0.20;;;8.70;66.50;;;;;;4974545;28;20571;-64
2021/12/03 01:40:31;;;;;;;0.10;0.10;;;8.70;66.10;;;;;;4974660;28;20183;-61
2021/12/03 01:42:57;;;;;;;0.20;0.20;;;8.70;66.30;;;;;;4974537;28;20587;-65
2021/12/03 01:45:29;;;;;;;0.50;0.20;;;8.70;66.30;;;;;;4975285;28;20184;-62
2021/12/03 01:47:56;;;;;;;0.22;0.22;;;8.60;67.20;;;;;;4975618;28;20195;-66
2021/12/03 01:50:28;;;;;;;0.20;0.20;;;8.60;66.70;;;;;;4976672;28;20628;-67
2021/12/03 01:52:54;;;;;;;0.22;0.20;;;8.60;66.00;;;;;;4977803;28;20194;-66
2021/12/03 01:55:20;;;;;;;0.75;0.20;;;8.60;66.30;;;;;;4977430;28;20177;-70
2021/12/03 01:57:46;;;;;;;0.20;0.20;;;8.50;65.70;;;;;;4978168;28;20183;-67
2021/12/03 02:00:20;;;;;;;0.20;0.20;;;8.60;66.70;;;;;;4977130;28;20176;-67
2021/12/03 02:02:47;;;;;;;3.00;0.20;;;8.60;66.90;;;;;;4976276;28;20215;-69
2021/12/03 02:05:13;;;;;;;0.25;0.25;;;8.60;66.70;;;;;;4977046;28;20200;-62
2021/12/03 02:07:39;;;;;;;0.20;0.20;;;8.60;67.60;;;;;;4977839;28;20179;-62
2021/12/03 02:10:06;;;;;;;0.30;0.30;;;8.60;68.40;;;;;;4979062;28;20885;-62
2021/12/03 02:12:32;;;;;;;0.20;0.20;;;8.60;67.50;;;;;;4979169;28;20633;-66
2021/12/03 02:14:57;;;;;;;0.20;0.20;;;8.50;67.40;;;;;;4979194;28;20188;-64
2021/12/03 02:17:23;;;;;;;0.10;0.10;;;8.50;67.10;;;;;;4978799;28;20176;-67
2021/12/03 02:19:50;;;;;;;0.10;0.10;;;8.50;67.20;;;;;;4979102;28;20200;-62
2021/12/03 02:22:16;;;;;;;0.28;0.20;;;8.50;67.10;;;;;;4978869;28;20219;-66
2021/12/03 02:24:42;;;;;;;0.30;0.30;;;8.50;66.70;;;;;;4978767;28;20176;-62
2021/12/03 02:27:08;;;;;;;0.10;0.10;;;8.50;66.60;;;;;;4979177;28;20188;-60
2021/12/03 02:29:33;;;;;;;0.20;0.20;;;8.40;68.40;;;;;;4978480;28;20200;-67
2021/12/03 02:31:59;;;;;;;0.20;0.20;;;8.30;67.90;;;;;;4977946;28;20283;-68
2021/12/03 02:34:25;;;;;;;0.10;0.10;;;8.30;67.70;;;;;;4978669;28;20177;-66
2021/12/03 02:36:50;;;;;;;0.30;0.20;;;8.40;66.80;;;;;;4978225;28;20176;-70
2021/12/03 02:39:16;;;;;;;0.57;0.20;;;8.60;66.40;;;;;;4978507;28;20200;-67
2021/12/03 02:41:42;;;;;;;1.35;0.17;;;8.60;65.70;;;;;;4977973;28;20204;-67
2021/12/03 02:44:08;;;;;;;0.20;0.20;;;8.60;65.20;;;;;;4977805;28;20196;-67
2021/12/03 02:46:33;;;;;;;0.20;0.20;;;8.60;65.40;;;;;;4978430;28;20679;-68
2021/12/03 02:48:59;;;;;;;0.17;0.15;;;8.60;66.20;;;;;;4978424;28;20199;-67
2021/12/03 02:51:25;;;;;;;0.20;0.20;;;8.60;65.80;;;;;;4977731;28;20254;-60
2021/12/03 02:53:51;;;;;;;0.20;0.20;;;8.60;65.90;;;;;;4978198;28;20691;-61
2021/12/03 02:56:16;;;;;;;0.80;0.20;;;8.50;66.30;;;;;;4977858;28;20180;-63
2021/12/03 02:58:42;;;;;;;0.28;0.28;;;8.40;66.60;;;;;;4978144;28;20200;-66
2021/12/03 03:01:11;;;;;;;0.20;0.20;;;8.40;65.40;;;;;;4977685;28;20187;-65
2021/12/03 03:03:37;;;;;;;0.28;0.20;;;8.30;66.20;;;;;;4977946;28;20299;-59
2021/12/03 03:06:06;;;;;;;0.10;0.10;;;8.40;66.00;;;;;;4977220;28;20176;-63
2021/12/03 03:08:32;;;;;;;0.20;0.20;;;8.50;66.00;;;;;;4976839;28;20231;-66
2021/12/03 03:11:00;;;;;;;0.43;0.20;;;8.50;65.90;;;;;;4976983;28;20232;-67
2021/12/03 03:13:26;;;;;;;0.45;0.20;;;8.60;65.50;;;;;;4976295;28;20180;-68
2021/12/03 03:15:52;;;;;;;0.20;0.20;;;8.50;65.30;;;;;;4976744;28;20180;-68
2021/12/03 03:18:25;;;;;;;0.25;0.20;;;8.50;65.30;;;;;;4976156;28;20193;-67
2021/12/03 03:20:52;;;;;;;0.20;0.20;;;8.60;65.10;;;;;;4976475;28;20195;-69
2021/12/03 03:23:18;;;;;;;1.08;0.28;;;8.50;65.10;;;;;;4976202;28;20763;-70
2021/12/03 03:25:46;;;;;;;0.30;0.30;;;8.40;65.90;;;;;;4976333;28;20212;-66
2021/12/03 03:28:13;;;;;;;0.20;0.20;;;8.30;66.90;;;;;;4975931;28;20200;-68
2021/12/03 03:30:41;;;;;;;0.25;0.25;;;8.20;67.30;;;;;;4976313;28;20187;-68
2021/12/03 03:33:07;;;;;;;0.15;0.15;;;8.10;67.20;;;;;;4976174;28;20180;-68
2021/12/03 03:35:33;;;;;;;0.20;0.20;;;8.10;67.40;;;;;;4976143;28;20172;-68
2021/12/03 03:38:00;;;;;;;0.30;0.30;;;8.20;67.60;;;;;;4975724;28;20504;-68
2021/12/03 03:40:26;;;;;;;0.30;0.20;;;8.30;66.90;;;;;;4975859;28;20184;-62
2021/12/03 03:42:52;;;;;;;0.10;0.10;;;8.30;66.90;;;;;;4975833;28;20254;-65
2021/12/03 03:45:20;;;;;;;0.57;0.20;;;8.30;66.90;;;;;;4975789;28;20176;-63
2021/12/03 03:47:47;;;;;;;0.70;0.30;;;8.30;66.30;;;;;;4975722;28;20175;-62
2021/12/03 03:50:15;;;;;;;0.80;0.10;;;8.30;66.20;;;;;;4975860;28;20193;-64
2021/12/03 03:52:42;;;;;;;0.10;0.10;;;8.30;66.70;;;;;;4975772;28;20172;-65
2021/12/03 03:55:11;;;;;;;0.40;0.20;;;8.30;66.70;;;;;;4975488;28;20198;-68
2021/12/03 03:57:38;;;;;;;0.10;0.10;;;8.10;67.20;;;;;;4975669;28;20699;-68
2021/12/03 04:00:08;;;;;;;0.30;0.30;;;8.10;66.20;;;;;;4975689;28;20664;-65
2021/12/03 04:02:33;;;;;;;0.22;0.22;;;8.10;67.00;;;;;;4975478;28;20310;-67
2021/12/03 04:04:59;;;;;;;0.30;0.30;;;8.10;67.80;;;;;;4975556;28;20307;-68
2021/12/03 04:07:25;;;;;;;0.20;0.20;;;8.20;66.90;;;;;;4975535;28;20191;-69
2021/12/03 04:09:50;;;;;;;2.20;0.32;;;8.20;66.80;;;;;;4975074;28;20232;-70
2021/12/03 04:12:16;;;;;;;0.20;0.20;;;8.20;66.40;;;;;;4975823;28;20176;-67
2021/12/03 04:14:42;;;;;;;0.20;0.20;;;8.20;66.40;;;;;;4975977;28;20521;-68
2021/12/03 04:17:08;;;;;;;0.77;0.30;;;8.30;66.30;;;;;;4975838;28;20227;-68
2021/12/03 04:19:34;;;;;;;0.57;0.20;;;8.40;65.90;;;;;;4975455;28;20193;-71
2021/12/03 04:22:00;;;;;;;0.30;0.20;;;8.40;65.90;;;;;;4975496;28;20208;-69
2021/12/03 04:24:25;;;;;;;0.35;0.30;;;8.40;66.40;;;;;;4975483;28;20595;-68
2021/12/03 04:26:51;;;;;;;0.10;0.10;;;8.30;65.60;;;;;;4975284;28;20176;-70
2021/12/03 04:29:17;;;;;;;0.20;0.20;;;8.30;66.00;;;;;;4974876;28;20204;-61
2021/12/03 04:31:42;;;;;;;0.30;0.30;;;8.40;65.30;;;;;;4975107;28;20203;-69
2021/12/03 04:34:08;;;;;;;0.20;0.20;;;8.50;65.50;;;;;;4975023;28;20244;-67
2021/12/03 04:36:34;;;;;;;0.22;0.20;;;8.50;65.20;;;;;;4975057;28;20655;-70
2021/12/03 04:39:00;;;;;;;0.20;0.20;;;8.40;65.10;;;;;;4974698;28;20663;-69
2021/12/03 04:41:26;;;;;;;0.25;0.20;;;8.40;66.00;;;;;;4974779;28;20176;-70
2021/12/03 04:43:51;;;;;;;0.20;0.20;;;8.30;66.20;;;;;;4975055;28;20318;-68
2021/12/03 04:46:19;;;;;;;0.20;0.20;;;8.20;66.60;;;;;;4974920;28;20276;-69
2021/12/03 04:48:45;;;;;;;0.20;0.20;;;8.10;66.70;;;;;;4975147;28;20583;-63
2021/12/03 04:51:11;;;;;;;0.20;0.20;;;8.10;67.20;;;;;;4977075;28;20176;-63
2021/12/03 04:53:36;;;;;;;0.20;0.20;;;8.20;66.10;;;;;;4977488;28;20259;-65
2021/12/03 04:56:02;;;;;;;0.20;0.20;;;8.20;66.70;;;;;;4975950;28;20180;-60
2021/12/03 04:58:28;;;;;;;0.20;0.20;;;8.30;66.10;;;;;;4975207;28;20199;-68
2021/12/03 05:00:55;;;;;;;0.88;0.32;;;8.30;66.20;;;;;;4975429;28;20258;-62
2021/12/03 05:03:24;;;;;;;0.30;0.22;;;8.40;66.00;;;;;;4974463;28;20235;-65
2021/12/03 05:06:00;;;;;;;0.30;0.30;;;8.40;65.70;;;;;;4974338;28;20661;-61
2021/12/03 05:08:28;;;;;;;0.10;0.10;;;8.30;65.90;;;;;;4972842;28;20339;-62
2021/12/03 05:10:55;;;;;;;0.10;0.10;;;8.30;65.80;;;;;;4974512;28;20191;-63
2021/12/03 05:13:24;;;;;;;0.38;0.38;;;8.40;65.80;;;;;;4974356;28;20188;-65
2021/12/03 05:15:50;;;;;;;0.90;0.30;;;8.40;64.60;;;;;;4974137;28;20184;-69
2021/12/03 05:18:19;;;;;;;0.20;0.20;;;8.50;64.40;;;;;;4974346;28;20698;-69
2021/12/03 05:20:46;;;;;;;0.40;0.40;;;8.60;64.50;;;;;;4974138;28;20191;-62
2021/12/03 05:23:13;;;;;;;0.20;0.20;;;8.60;64.20;;;;;;4974414;28;20591;-66
2021/12/03 05:25:38;;;;;;;0.20;0.20;;;8.60;65.00;;;;;;4974225;28;20176;-63
2021/12/03 05:28:05;;;;;;;0.22;0.22;;;8.50;64.40;;;;;;4974090;28;20778;-61
2021/12/03 05:30:32;;;;;;;0.52;0.20;;;8.30;65.10;;;;;;4974282;28;20179;-65
2021/12/03 05:32:58;;;;;;;0.30;0.28;;;8.40;65.00;;;;;;4974187;28;20253;-63
2021/12/03 05:35:25;;;;;;;0.30;0.30;;;8.50;64.80;;;;;;4974046;28;20177;-64
2021/12/03 05:37:52;;;;;;;0.43;0.32;;;8.50;64.60;;;;;;4974265;28;20222;-62
2021/12/03 05:40:18;;;;;;;1.60;0.30;;;8.50;65.70;;;;;;4974110;28;20656;-63
2021/12/03 05:42:45;;;;;;;0.70;0.30;;;8.40;65.60;;;;;;4977926;28;20212;-62
2021/12/03 05:45:17;;;;;;;0.60;0.20;;;8.40;64.90;;;;;;4977826;28;20250;-60
2021/12/03 05:47:43;;;;;;;0.45;0.20;;;8.40;64.60;;;;;;4977740;28;20207;-61
2021/12/03 05:50:10;;;;;;;0.32;0.28;;;8.50;64.00;;;;;;4977859;28;20258;-63
2021/12/03 05:52:36;;;;;;;1.33;0.82;;;8.40;65.20;;;;;;4977869;28;20172;-60
2021/12/03 05:55:03;;;;;;;5.43;1.55;;;8.50;65.10;;;;;;4977876;28;20255;-62
2021/12/03 05:57:29;;;;;;;0.63;0.40;;;8.40;65.70;;;;;;4977605;28;20184;-66
2021/12/03 05:59:54;;;;;;;0.22;0.22;;;8.50;65.00;;;;;;4977724;28;20203;-69
2021/12/03 06:02:20;;;;;;;0.20;0.20;;;8.50;64.70;;;;;;4977343;28;20283;-69
2021/12/03 06:04:46;;;;;;;0.38;0.38;;;8.50;63.90;;;;;;4977711;28;20230;-69
2021/12/03 06:07:12;;;;;;;0.20;0.20;;;8.50;63.60;;;;;;4977727;28;20602;-69
2021/12/03 06:09:38;;;;;;;0.35;0.30;;;8.50;63.50;;;;;;4977455;28;20773;-62
2021/12/03 06:12:04;;;;;;;0.30;0.20;;;8.60;63.50;;;;;;4977527;28;20210;-61
2021/12/03 06:14:30;;;;;;;1.58;0.30;;;8.60;62.30;;;;;;4977551;28;20640;-62
2021/12/03 06:16:56;;;;;;;0.38;0.30;;;8.70;61.80;;;;;;4977637;28;20259;-63
2021/12/03 06:19:25;;;;;;;0.60;0.60;;;8.70;63.20;;;;;;4977717;28;20239;-61
2021/12/03 06:21:51;;;;;;;0.40;0.40;;;8.70;63.70;;;;;;4977480;28;20219;-63
2021/12/03 06:24:17;;;;;;;1.92;0.60;;;8.70;64.60;;;;;;4977571;28;20271;-66
2021/12/03 06:26:43;;;;;;;0.50;0.32;;;8.70;65.40;;;;;;4977348;28;20211;-61
2021/12/03 06:29:09;;;;;;;0.57;0.40;;;8.70;63.50;;;;;;4977310;28;20200;-64
2021/12/03 06:31:34;;;;;;;0.70;0.40;;;8.60;62.50;;;;;;4977262;28;20180;-63
2021/12/03 06:34:01;;;;;;;0.30;0.30;;;8.60;62.60;;;;;;4977250;28;20183;-65
2021/12/03 06:36:26;;;;;;;0.28;0.28;;;8.60;60.30;;;;;;4977315;28;20177;-69
2021/12/03 06:38:52;;;;;;;1.15;0.40;;;8.60;60.90;;;;;;4975967;28;20207;-69
2021/12/03 06:41:18;;;;;;;0.40;0.38;;;8.70;61.30;;;;;;4977067;28;20222;-67
2021/12/03 06:43:44;;;;;;;0.20;0.20;;;8.80;61.20;;;;;;4977067;28;20215;-67
2021/12/03 06:46:10;;;;;;;0.70;0.70;;;8.70;60.90;;;;;;4976908;28;20175;-69
2021/12/03 06:48:35;;;;;;;0.63;0.60;;;8.80;61.30;;;;;;4977236;28;20200;-69
2021/12/03 06:51:02;;;;;;;2.65;0.45;;;8.80;61.00;;;;;;4977091;28;20180;-68
2021/12/03 06:53:39;;;;;;;1.58;1.02;;;8.80;60.60;;;;;;4976488;28;20192;-67
2021/12/03 06:56:08;;;;;;;0.75;0.73;;;9.00;69.10;;;;;;4975814;28;20257;-66
2021/12/03 06:58:34;;;;;;;1.35;0.60;;;9.30;66.30;;;;;;4976362;28;20204;-67
2021/12/03 07:01:00;;;;;;;0.60;0.60;;;9.80;63.50;;;;;;4976815;28;20202;-66
2021/12/03 07:03:26;;;;;;;0.80;0.80;;;9.70;58.90;;;;;;4976456;28;20215;-63
2021/12/03 07:05:52;;;;;;;2.30;0.50;;;10.10;63.60;;;;;;4976433;28;20590;-67
2021/12/03 07:08:18;;;;;;;1.52;0.68;;;10.10;60.00;;;;;;4976395;28;20220;-66
2021/12/03 07:10:44;;;;;;;2.53;1.80;;;9.80;59.10;;;;;;4976299;28;20180;-64
2021/12/03 07:13:10;;;;;;;1.75;1.30;;;10.10;62.90;;;;;;4976363;28;20223;-65
2021/12/03 07:15:36;;;;;;;0.70;0.70;;;10.70;61.20;;;;;;4976209;28;20204;-62
2021/12/03 07:18:02;;;;;;;0.50;0.50;;;10.70;58.70;;;;;;4976335;28;20319;-63
2021/12/03 07:20:29;;;;;;;3.22;0.50;;;10.90;56.70;;;;;;4976444;28;20184;-67
2021/12/03 07:22:57;;;;;;;2.42;1.00;;;10.20;54.90;;;;;;4975381;28;20212;-62
2021/12/03 07:25:24;;;;;;;2.40;0.80;;;10.20;64.10;;;;;;4976181;28;20200;-63
2021/12/03 07:27:50;;;;;;;0.55;0.50;;;10.60;62.00;;;;;;4975506;28;20243;-62
2021/12/03 07:30:18;;;;;;;0.80;0.80;;;10.40;56.00;;;;;;4976308;28;20177;-63
2021/12/03 07:32:45;;;;;;;0.68;0.60;;;10.60;59.60;;;;;;4976214;28;20184;-66
2021/12/03 07:35:11;;;;;;;0.82;0.68;;;10.50;55.40;;;;;;4976034;28;20188;-67
2021/12/03 07:37:37;;;;;;;1.83;0.40;;;10.30;55.20;;;;;;4974860;28;20168;-69
2021/12/03 07:40:07;;;;;;;0.47;0.47;;;10.00;55.90;;;;;;4975578;28;20280;-71
2021/12/03 07:42:34;;;;;;;1.05;0.50;;;9.60;56.00;;;;;;4975415;28;20266;-65
2021/12/03 07:45:00;;;;;;;0.80;0.45;;;9.40;57.00;;;;;;4975772;28;20179;-70
2021/12/03 07:47:26;;;;;;;0.30;0.30;;;9.10;57.20;;;;;;4975742;28;20188;-63
2021/12/03 07:49:53;;;;;;;0.63;0.40;;;9.20;57.20;;;;;;4975662;28;20664;-67
2021/12/03 07:52:20;;;;;;;0.50;0.50;;;9.20;57.40;;;;;;4975661;28;20659;-63
2021/12/03 07:54:46;;;;;;;0.52;0.50;;;9.20;57.60;;;;;;4975517;28;20196;-69
2021/12/03 07:57:12;;;;;;;0.30;0.30;;;9.10;57.60;;;;;;4975778;28;20164;-60
2021/12/03 07:59:38;;;;;;;0.88;0.60;;;9.20;57.30;;;;;;4975389;28;20199;-66
2021/12/03 08:02:04;;;;;;;1.98;0.80;;;9.10;58.00;;;;;;4975461;28;20294;-68
2021/12/03 08:04:30;;;;;;;2.05;0.60;;;9.00;58.70;;;;;;4974598;28;20172;-69
2021/12/03 08:06:56;;;;;;;0.65;0.40;;;9.00;58.20;;;;;;4975891;28;20349;-69
2021/12/03 08:09:22;;;;;;;0.88;0.50;;;9.10;58.20;;;;;;4975106;28;20236;-58
2021/12/03 08:11:48;;;;;;;1.40;0.40;;;9.10;57.70;;;;;;4975350;28;20303;-67
2021/12/03 08:14:14;;;;;;;0.98;0.60;;;9.30;57.40;;;;;;4975426;28;20169;-60
2021/12/03 08:16:40;;;;;;;0.60;0.57;;;9.20;57.40;;;;;;4975243;28;20651;-66
2021/12/03 08:19:06;;;;;;;0.75;0.60;;;9.40;57.50;;;;;;4975164;28;20605;-68
2021/12/03 08:21:32;;;;;;;0.60;0.50;;;9.40;57.20;;;;;;4975338;28;20235;-70
2021/12/03 08:24:01;;;;;;;0.50;0.50;;;9.30;57.40;;;;;;4974919;28;20654;-69
2021/12/03 08:26:29;;;;;;;1.17;0.60;;;9.30;57.10;;;;;;4975272;28;20650;-70
2021/12/03 08:28:55;;;;;;;1.52;0.80;;;9.40;57.70;;;;;;4974969;28;20502;-67
2021/12/03 08:31:23;;;;;;;0.60;0.60;;;9.40;57.60;;;;;;4975069;28;20180;-67
2021/12/03 08:33:49;;;;;;;1.00;0.40;;;9.30;57.30;;;;;;4974924;28;20263;-60
2021/12/03 08:36:15;;;;;;;2.78;0.60;;;9.20;57.40;;;;;;4974686;28;20683;-63
2021/12/03 08:38:41;;;;;;;0.30;0.30;;;9.30;56.90;;;;;;4974680;28;20286;-65
2021/12/03 08:41:10;;;;;;;0.47;0.40;;;9.30;57.60;;;;;;4974763;28;20183;-64
2021/12/03 08:43:36;;;;;;;0.75;0.40;;;9.40;57.00;;;;;;4975071;28;20224;-67
2021/12/03 08:46:09;;;;;;;0.30;0.30;;;9.50;56.60;;;;;;4983500;28;20175;-65
2021/12/03 08:48:39;;;;;;;0.20;0.20;;;9.60;56.20;;;;;;4981037;28;20203;-62
2021/12/03 08:51:14;;;;;;;1.15;0.50;;;9.70;56.30;;;;;;4981696;28;20180;-65
2021/12/03 08:56:24;;;;;;;0.50;0.50;;;10.00;56.30;;;;;;4975159;28;20187;-59
2021/12/03 08:58:50;;;;;;;1.60;0.70;;;9.90;55.20;;;;;;4974674;28;20196;-57
2021/12/03 09:01:16;;;;;;;0.45;0.45;;;10.10;55.30;;;;;;4974737;28;20669;-62
2021/12/03 09:03:41;;;;;;;0.93;0.57;;;10.10;55.40;;;;;;4974253;28;20246;-62
2021/12/03 09:06:07;;;;;;;0.70;0.50;;;10.00;55.50;;;;;;4974401;28;20203;-66
2021/12/03 09:08:33;;;;;;;0.47;0.40;;;10.00;55.50;;;;;;4974001;28;20243;-63
2021/12/03 09:10:59;;;;;;;1.58;0.50;;;10.00;55.10;;;;;;4974016;28;20187;-64
2021/12/03 09:13:24;;;;;;;0.75;0.55;;;10.00;55.60;;;;;;4974429;28;20176;-66
2021/12/03 09:16:11;;;;;;;1.40;0.50;;;10.00;55.20;;;;;;4973768;28;20228;-65
2021/12/03 09:18:40;;;;;;;0.40;0.40;;;10.00;55.30;;;;;;4975148;28;20694;-59
2021/12/03 09:26:19;;;;;;;1.45;0.70;;;10.10;54.50;;;;;;4974965;28;20250;-61
2021/12/03 09:28:50;;;;;;;1.30;0.70;;;10.10;55.30;;;;;;4975444;28;20208;-60
2021/12/03 09:31:17;;;;;;;4.05;0.57;;;10.10;54.80;;;;;;4974511;28;20199;-65
2021/12/03 09:33:46;;;;;;;0.77;0.50;;;10.00;55.10;;;;;;4974190;28;20219;-60
2021/12/03 09:36:12;;;;;;;1.80;0.73;;;10.10;55.70;;;;;;4974200;28;20631;-58
2021/12/03 09:38:38;;;;;;;0.65;0.43;;;10.30;55.20;;;;;;4974318;28;20192;-61
2021/12/03 09:41:13;;;;;;;2.67;0.63;;;10.30;54.40;;;;;;4973875;28;20184;-58
2021/12/03 09:43:41;;;;;;;0.80;0.70;;;10.40;54.90;;;;;;4973802;28;20247;-66
2021/12/03 09:48:54;;;;;;;0.52;0.50;;;10.30;54.00;;;;;;4973781;28;20200;-65
2021/12/03 09:51:22;;;;;;;1.52;0.95;;;10.20;54.90;;;;;;4973692;28;20255;-60
2021/12/03 09:56:33;;;;;;;1.17;0.80;;;10.40;55.70;;;;;;4974047;28;20227;-64
2021/12/03 10:01:53;;;;;;;4.70;1.55;;;10.60;54.40;;;;;;4973779;28;20186;-66
2021/12/03 10:15:22;;;;;;;0.75;0.50;;;10.80;53.70;;;;;;4973816;28;20188;-63
2021/12/03 10:20:47;;;;;;;1.55;1.20;;;10.80;53.60;;;;;;4974206;28;20701;-65
2021/12/03 10:23:47;;;;;;;1.35;1.13;;;10.70;52.80;;;;;;4973649;28;20208;-62
2021/12/03 10:26:47;;;;;;;1.90;1.08;;;10.80;52.70;;;;;;4973367;28;20188;-66
2021/12/03 10:29:23;;;;;;;2.40;0.50;;;10.50;53.00;;;;;;4975716;28;20218;-62
2021/12/03 10:35:13;;;;;;;1.85;0.63;;;10.60;52.90;;;;;;4977458;28;20228;-63
2021/12/03 10:49:10;;;;;;;0.47;0.47;;;10.00;53.40;;;;;;4977100;28;20246;-60
2021/12/03 11:40:35;;;;;;;0.70;0.52;;;10.40;50.20;;;;;;4975804;28;20223;-61
2021/12/03 12:01:04;;;;;;;1.75;0.47;;;10.50;47.30;;;;;;4958614;28;20199;-74
2021/12/03 14:06:11;;;;;;;0.38;0.32;;;10.30;43.40;;;;;;4964976;28;20173;-67
2021/12/03 14:46:47;;;;;;;1.10;0.55;;;10.50;44.30;;;;;;4973700;28;20176;-63
2021/12/03 15:00:19;;;;;;;2.55;1.05;;;9.90;45.80;;;;;;4975125;28;20211;-64
2021/12/03 15:08:41;;;;;;;1.38;0.90;;;9.60;46.80;;;;;;4974587;28;20278;-61
2021/12/03 15:35:43;;;;;;;2.97;0.90;;;9.00;48.10;;;;;;4975391;28;20194;-69
2021/12/03 16:10:19;;;;;;;2.03;1.58;;;8.60;47.40;;;;;;4973756;28;20236;-75
2021/12/03 16:53:46;;;;;;;1.65;1.20;;;8.40;48.10;;;;;;4976562;28;20179;-72
2021/12/03 16:56:25;;;;;;;2.47;1.67;;;8.40;47.90;;;;;;4976121;28;20315;-71
2021/12/03 16:58:57;;;;;;;3.70;2.38;;;8.50;48.20;;;;;;4971651;28;20219;-68
2021/12/03 17:04:04;;;;;;;3.20;1.70;;;8.40;49.70;;;;;;4974178;28;20211;-73
2021/12/03 17:09:23;;;;;;;3.63;1.67;;;8.00;50.90;;;;;;4970628;28;20242;-72
2021/12/03 17:47:03;;;;;;;2.45;1.40;;;7.50;53.50;;;;;;4976562;28;20191;-72
2021/12/03 18:00:41;;;;;;;3.72;2.53;;;7.80;52.20;;;;;;4976446;28;20736;-69
2021/12/03 18:03:34;;;;;;;3.15;2.08;;;7.90;51.80;;;;;;4975734;28;20204;-73
2021/12/03 18:55:29;;;;;;;3.42;2.78;;;7.60;57.80;;;;;;4963782;28;20267;-76
2021/12/03 18:57:59;;;;;;;3.85;2.72;;;7.50;57.80;;;;;;4976573;28;20184;-78
2021/12/03 19:00:30;;;;;;;4.18;3.10;;;7.30;58.40;;;;;;4976608;28;20176;-78
2021/12/03 19:03:00;;;;;;;5.70;3.08;;;7.30;58.80;;;;;;4976346;28;20223;-70
2021/12/03 19:08:06;;;;;;;3.53;2.58;;;7.30;58.80;;;;;;4973675;28;20184;-60
2021/12/03 19:10:34;;;;;;;6.57;3.60;;;7.40;58.90;;;;;;4973493;28;20187;-69
2021/12/03 19:13:04;;;;;;;5.75;2.92;;;7.40;59.00;;;;;;4975238;28;20614;-59
2021/12/03 19:15:30;;;;;;;5.15;3.22;;;7.30;59.10;;;;;;4975476;28;20271;-62
2021/12/03 19:18:01;;;;;;;4.13;3.30;;;7.40;58.90;;;;;;4975071;28;20208;-59
2021/12/03 19:20:29;;;;;;;7.18;3.05;;;7.20;58.80;;;;;;4975090;28;20180;-59
2021/12/03 19:22:54;;;;;;;4.70;3.20;;;7.30;59.20;;;;;;4959635;28;20677;-58
2021/12/03 19:25:20;;;;;;;5.28;3.08;;;7.30;59.10;;;;;;4962978;28;20192;-67
2021/12/03 19:27:46;;;;;;;3.78;2.90;;;7.20;59.40;;;;;;4975393;28;20176;-62
2021/12/03 19:30:12;;;;;;;5.35;3.08;;;7.20;59.40;;;;;;4974752;28;20184;-63
2021/12/03 19:32:38;;;;;;;6.13;3.53;;;7.10;59.80;;;;;;4975150;28;20647;-65
2021/12/03 19:35:05;;;;;;;4.72;3.20;;;7.10;59.70;;;;;;4974464;28;20555;-65
2021/12/03 19:37:31;;;;;;;6.32;3.60;;;7.30;58.90;;;;;;4974695;28;20218;-66
2021/12/03 19:40:00;;;;;;;3.83;3.20;;;7.30;58.90;;;;;;4961093;28;20643;-68
2021/12/03 19:42:32;;;;;;;6.43;3.30;;;7.50;58.50;;;;;;4974761;28;20216;-69
2021/12/03 19:45:05;;;;;;;5.97;3.28;;;7.50;58.30;;;;;;4974617;28;20648;-68
2021/12/03 19:47:57;;;;;;;5.05;3.17;;;7.60;57.50;;;;;;4974631;28;20199;-67
2021/12/03 19:53:01;;;;;;;5.55;3.75;;;7.60;57.10;;;;;;4974359;28;20279;-68
2021/12/03 19:55:27;;;;;;;5.60;3.65;;;7.60;57.10;;;;;;4971726;28;20180;-65
2021/12/03 19:57:53;;;;;;;4.75;3.25;;;7.60;56.70;;;;;;4974394;28;20195;-65
2021/12/03 20:00:22;;;;;;;3.85;2.70;;;7.60;56.60;;;;;;4969518;28;20177;-77
2021/12/03 20:02:48;;;;;;;6.68;3.92;;;7.60;56.50;;;;;;4974363;28;20274;-66
2021/12/03 20:05:14;;;;;;;7.30;3.50;;;7.60;56.00;;;;;;4965107;28;20173;-73
2021/12/03 20:07:40;;;;;;;6.72;4.38;;;7.50;56.10;;;;;;4973930;28;20657;-71
2021/12/03 20:10:15;;;;;;;8.48;4.78;;;7.40;56.40;;;;;;4973800;28;20271;-74
2021/12/03 20:12:42;;;;;;;6.93;3.85;;;7.30;56.30;;;;;;4974136;28;20605;-74
2021/12/03 20:15:11;;;;;;;4.40;3.20;;;7.20;56.60;;;;;;4973816;28;20665;-73
2021/12/03 20:17:56;;;;;;;7.03;3.65;;;7.30;56.40;;;;;;4973989;28;20172;-69
2021/12/03 20:20:24;;;;;;;5.32;3.50;;;7.40;56.20;;;;;;4974020;28;20188;-77
2021/12/03 20:23:08;;;;;;;4.55;3.08;;;7.30;55.80;;;;;;4973788;28;20258;-76
2021/12/03 20:25:54;;;;;;;5.82;3.33;;;7.40;55.60;;;;;;4974372;28;20191;-73
2021/12/03 20:28:57;;;;;;;16.35;8.93;;;7.40;55.50;;;;;;4954279;28;20275;-72
2021/12/03 20:31:13;;;;;;;6.15;2.90;;;7.40;55.30;;;;;;4959092;28;20689;-72
2021/12/03 20:33:58;;;;;;;8.20;4.78;;;7.10;55.20;;;;;;4956424;28;20661;-72
2021/12/03 20:39:23;;;;;;;4.97;2.63;;;7.10;55.20;;;;;;4957878;28;20208;-70
2021/12/03 20:41:57;;;;;;;5.22;2.65;;;7.10;55.10;;;;;;4958375;28;20613;-70
2021/12/03 21:09:35;;;;;;;3.00;2.33;;;6.60;55.10;;;;;;4973175;28;20274;-66
2021/12/03 21:12:09;;;;;;;4.78;3.03;;;6.70;54.70;;;;;;4972966;28;20188;-75
2021/12/03 21:14:38;;;;;;;4.38;2.97;;;6.70;55.30;;;;;;4974151;28;20198;-81
2021/12/03 21:20:01;;;;;;;5.15;2.95;;;6.60;54.60;;;;;;4973644;28;20283;-70
2021/12/03 21:22:20;;;;;;;5.78;2.60;;;6.60;55.00;;;;;;4972893;28;20200;-76
2021/12/03 21:24:49;;;;;;;8.48;3.10;;;6.50;55.60;;;;;;4973167;28;20331;-75
2021/12/03 21:27:20;;;;;;;6.88;3.47;;;6.40;55.60;;;;;;4973053;28;20643;-77
2021/12/03 21:30:18;;;;;;;6.50;3.38;;;6.40;56.00;;;;;;4956141;28;20228;-74
2021/12/03 21:43:23;;;;;;;4.07;2.85;;;6.50;55.60;;;;;;4972153;28;20698;-71
2021/12/03 21:45:50;;;;;;;3.22;2.58;;;6.40;55.60;;;;;;4973249;28;20180;-74
2021/12/03 21:48:16;;;;;;;6.35;2.80;;;6.40;55.10;;;;;;4972516;28;20641;-75
2021/12/03 21:50:42;;;;;;;5.38;2.60;;;6.50;54.60;;;;;;4971761;28;20230;-76
2021/12/03 21:53:08;;;;;;;2.55;2.20;;;6.60;54.50;;;;;;4971245;28;20192;-76